createdAt,value
2022-07-31T00:00:31.186Z,33.20
2022-07-31T00:03:06.845Z,33.70
2022-07-31T00:05:41.892Z,33.90
2022-07-31T00:08:16.422Z,34.40
2022-07-31T00:10:50.191Z,34.70
2022-07-31T00:13:56.435Z,34.50
2022-07-31T00:16:21.867Z,34.60
2022-07-31T00:18:57.506Z,33.70
2022-07-31T00:21:32.701Z,33.50
2022-07-31T00:24:06.888Z,33.70
2022-07-31T00:26:41.984Z,33.90
2022-07-31T00:29:16.607Z,34.00
2022-07-31T00:31:50.655Z,34.20
2022-07-31T00:34:26.926Z,34.50
2022-07-31T00:39:49.250Z,34.20
2022-07-31T00:42:23.400Z,33.70
2022-07-31T00:44:57.175Z,33.40
2022-07-31T00:47:33.427Z,33.40
2022-07-31T00:50:10.679Z,33.60
2022-07-31T00:52:48.075Z,34.00
2022-07-31T00:55:28.558Z,34.30
2022-07-31T00:58:16.896Z,34.60
2022-07-31T01:00:51.765Z,35.40
2022-07-31T01:03:25.592Z,35.30
2022-07-31T01:06:01.348Z,35.20
2022-07-31T01:08:35.117Z,35.10
2022-07-31T01:11:12.022Z,34.50
2022-07-31T01:13:53.458Z,34.70
2022-07-31T01:16:28.415Z,34.70
2022-07-31T01:19:03.932Z,34.40
2022-07-31T01:21:47.063Z,34.20
2022-07-31T01:24:44.291Z,34.40
2022-07-31T01:27:49.318Z,34.60
2022-07-31T01:30:33.112Z,34.30
2022-07-31T01:33:13.998Z,34.40
2022-07-31T01:35:52.006Z,34.60
2022-07-31T01:38:28.914Z,34.40
2022-07-31T01:41:06.598Z,34.70
2022-07-31T01:43:42.936Z,34.20
2022-07-31T01:46:21.131Z,34.40
2022-07-31T01:48:59.104Z,34.30
2022-07-31T01:51:34.271Z,35.40
2022-07-31T01:54:09.186Z,35.80
2022-07-31T01:56:44.892Z,35.90
2022-07-31T01:59:22.966Z,36.50
2022-07-31T02:02:40.377Z,36.00
2022-07-31T02:05:17.427Z,37.20
2022-07-31T02:07:54.143Z,37.00
2022-07-31T02:10:32.927Z,36.40
2022-07-31T02:13:06.592Z,36.20
2022-07-31T02:15:41.297Z,36.30
2022-07-31T02:18:18.733Z,36.90
2022-07-31T02:21:30.035Z,37.20
2022-07-31T02:24:05.031Z,37.90
2022-07-31T02:26:42.062Z,38.30
2022-07-31T02:29:19.671Z,38.90
2022-07-31T02:32:01.811Z,38.70
2022-07-31T02:34:41.540Z,37.90
2022-07-31T02:37:19.014Z,37.50
2022-07-31T02:39:54.651Z,38.90
2022-07-31T02:42:28.791Z,38.90
2022-07-31T02:45:03.183Z,37.90
2022-07-31T02:47:37.832Z,37.50
2022-07-31T02:50:20.693Z,37.10
2022-07-31T02:52:56.918Z,36.80
2022-07-31T02:55:30.979Z,36.80
2022-07-31T02:58:06.422Z,37.30
2022-07-31T03:00:40.188Z,36.60
2022-07-31T03:03:13.691Z,36.30
2022-07-31T03:05:50.146Z,36.80
2022-07-31T03:08:24.549Z,36.70
2022-07-31T03:11:00.110Z,37.30
2022-07-31T03:13:36.486Z,37.70
2022-07-31T03:16:13.327Z,38.00
2022-07-31T03:18:47.698Z,37.80
2022-07-31T03:21:24.267Z,37.90
2022-07-31T03:23:58.297Z,37.90
2022-07-31T03:26:32.753Z,38.00
2022-07-31T03:29:39.076Z,38.60
2022-07-31T03:32:00.736Z,37.50
2022-07-31T03:34:34.995Z,37.70
2022-07-31T03:37:11.459Z,37.70
2022-07-31T03:39:46.803Z,38.60
2022-07-31T03:42:20.029Z,38.50
2022-07-31T03:44:54.099Z,38.50
2022-07-31T03:47:28.490Z,38.60
2022-07-31T03:50:03.073Z,38.70
2022-07-31T03:52:39.894Z,38.40
2022-07-31T03:55:14.546Z,38.10
2022-07-31T03:57:50.400Z,38.80
2022-07-31T04:00:28.747Z,39.00
2022-07-31T04:03:08.391Z,38.50
2022-07-31T04:06:04.915Z,38.50
2022-07-31T04:08:41.679Z,39.00
2022-07-31T04:11:15.879Z,39.40
2022-07-31T04:13:49.622Z,39.50
2022-07-31T04:16:26.792Z,39.20
2022-07-31T04:19:01.237Z,39.20
2022-07-31T04:21:35.127Z,38.80
2022-07-31T04:24:13.034Z,39.20
2022-07-31T04:27:00.957Z,39.10
2022-07-31T04:29:50.738Z,39.00
2022-07-31T04:32:27.810Z,39.10
2022-07-31T04:35:07.426Z,39.10
2022-07-31T04:37:48.084Z,39.40
2022-07-31T04:40:24.251Z,39.10
2022-07-31T04:43:18.408Z,38.70
2022-07-31T04:45:52.696Z,38.30
2022-07-31T04:48:27.077Z,38.50
2022-07-31T04:51:00.138Z,38.70
2022-07-31T04:53:35.477Z,38.80
2022-07-31T04:56:30.191Z,38.90
2022-07-31T04:59:13.309Z,38.70
2022-07-31T05:01:49.805Z,38.50
2022-07-31T05:04:28.093Z,38.40
2022-07-31T05:07:03.795Z,38.40
2022-07-31T05:09:38.388Z,38.60
2022-07-31T05:12:15.687Z,38.90
2022-07-31T05:14:49.224Z,39.00
2022-07-31T05:17:22.851Z,38.70
2022-07-31T05:20:17.363Z,38.30
2022-07-31T05:23:13.577Z,38.40
2022-07-31T05:26:06.557Z,38.30
2022-07-31T05:28:43.758Z,38.70
2022-07-31T05:34:09.647Z,38.80
2022-07-31T05:36:42.953Z,38.90
2022-07-31T05:39:19.178Z,38.70
2022-07-31T05:42:10.682Z,38.10
2022-07-31T05:45:28.057Z,37.70
2022-07-31T05:48:11.843Z,36.60
2022-07-31T05:50:56.295Z,35.50
2022-07-31T05:53:38.149Z,35.60
2022-07-31T05:56:31.233Z,35.70
2022-07-31T05:59:06.630Z,35.80
2022-07-31T06:01:42.262Z,35.50
2022-07-31T06:04:15.970Z,35.20
2022-07-31T06:06:52.341Z,35.00
2022-07-31T06:09:25.910Z,35.10
2022-07-31T06:12:00.241Z,35.40
2022-07-31T06:14:34.709Z,35.70
2022-07-31T06:17:20.586Z,36.00
2022-07-31T06:19:56.748Z,35.70
2022-07-31T06:22:30.901Z,35.70
2022-07-31T06:25:04.554Z,35.60
2022-07-31T06:27:39.339Z,35.10
2022-07-31T06:30:16.526Z,35.30
2022-07-31T06:32:52.358Z,35.30
2022-07-31T06:35:26.095Z,35.20
2022-07-31T06:38:54.277Z,35.10
2022-07-31T06:41:48.644Z,34.90
2022-07-31T06:44:35.240Z,34.90
2022-07-31T06:47:46.487Z,34.80
2022-07-31T06:50:35.588Z,35.00
2022-07-31T06:53:28.451Z,35.00
2022-07-31T06:56:02.411Z,35.40
2022-07-31T06:58:36.025Z,35.80
2022-07-31T07:01:09.283Z,36.20
2022-07-31T07:03:43.401Z,36.40
2022-07-31T07:06:25.399Z,36.50
2022-07-31T07:08:59.432Z,36.80
2022-07-31T07:11:33.608Z,37.10
2022-07-31T07:14:07.747Z,36.90
2022-07-31T07:16:42.300Z,36.70
2022-07-31T07:19:16.939Z,36.50
2022-07-31T07:21:52.861Z,36.70
2022-07-31T07:24:26.766Z,36.60
2022-07-31T07:27:10.713Z,36.10
2022-07-31T07:29:44.998Z,35.60
2022-07-31T07:32:19.403Z,35.70
2022-07-31T07:35:00.225Z,36.10
2022-07-31T07:38:05.253Z,36.20
2022-07-31T07:40:40.024Z,35.90
2022-07-31T07:43:14.449Z,36.10
2022-07-31T07:45:48.291Z,36.20
2022-07-31T07:48:22.342Z,36.20
2022-07-31T07:51:19.776Z,36.30
2022-07-31T07:54:00.075Z,36.40
2022-07-31T07:56:54.199Z,36.30
2022-07-31T07:59:55.118Z,36.20
2022-07-31T08:03:46.415Z,36.70
2022-07-31T08:05:52.501Z,36.90
2022-07-31T08:08:28.824Z,36.50
2022-07-31T08:11:25.017Z,36.20
2022-07-31T08:14:22.870Z,36.10
2022-07-31T08:17:19.963Z,36.00
2022-07-31T08:19:53.492Z,36.00
2022-07-31T08:22:29.184Z,36.20
2022-07-31T08:25:05.338Z,36.20
2022-07-31T08:27:41.883Z,36.20
2022-07-31T08:30:17.016Z,36.00
2022-07-31T08:32:51.253Z,35.70
2022-07-31T08:35:37.876Z,34.90
2022-07-31T08:38:12.609Z,34.40
2022-07-31T08:40:55.069Z,32.80
2022-07-31T08:43:59.896Z,31.70
2022-07-31T08:46:26.224Z,31.30
2022-07-31T08:49:01.688Z,30.90
2022-07-31T08:51:50.799Z,30.30
2022-07-31T08:54:54.610Z,29.50
2022-07-31T08:57:30.680Z,28.40
2022-07-31T09:00:08.472Z,28.00
2022-07-31T09:02:43.689Z,28.10
2022-07-31T09:05:42.325Z,28.40
2022-07-31T09:08:19.094Z,28.30
2022-07-31T09:11:08.359Z,28.30
2022-07-31T09:14:01.991Z,28.10
2022-07-31T09:16:56.931Z,28.30
2022-07-31T09:19:51.641Z,28.50
2022-07-31T09:22:32.851Z,28.70
2022-07-31T09:25:20.585Z,28.80
2022-07-31T09:28:04.740Z,28.40
2022-07-31T09:30:55.466Z,28.30
2022-07-31T09:33:52.430Z,28.30
2022-07-31T09:36:32.326Z,28.30
2022-07-31T09:39:26.736Z,28.50
2022-07-31T09:42:20.263Z,28.80
2022-07-31T09:45:25.525Z,29.20
2022-07-31T09:48:18.351Z,29.40
2022-07-31T09:51:04.815Z,29.40
2022-07-31T09:53:54.488Z,29.40
2022-07-31T09:57:01.277Z,29.60
2022-07-31T09:59:39.429Z,29.80
2022-07-31T10:02:17.220Z,30.00
2022-07-31T10:04:54.745Z,30.30
2022-07-31T10:07:34.832Z,30.50
2022-07-31T10:10:18.349Z,30.10
2022-07-31T10:13:14.780Z,30.20
2022-07-31T10:15:51.191Z,30.30
2022-07-31T10:18:44.500Z,30.40
2022-07-31T10:21:33.346Z,30.20
2022-07-31T10:24:16.836Z,30.20
2022-07-31T10:27:00.366Z,30.10
2022-07-31T10:29:36.529Z,30.20
2022-07-31T10:32:11.857Z,30.30
2022-07-31T10:35:18.964Z,30.20
2022-07-31T10:38:35.384Z,30.20
2022-07-31T10:41:51.347Z,30.40
2022-07-31T10:44:38.688Z,30.50
2022-07-31T10:47:35.210Z,30.60
2022-07-31T10:50:29.244Z,30.70
2022-07-31T10:53:17.481Z,30.70
2022-07-31T10:56:12.430Z,30.70
2022-07-31T10:59:07.575Z,30.70
2022-07-31T11:02:13.883Z,30.60
2022-07-31T11:04:53.301Z,30.10
2022-07-31T11:08:03.646Z,30.00
2022-07-31T11:10:58.389Z,30.10
2022-07-31T11:13:56.683Z,30.30
2022-07-31T11:16:59.460Z,30.30
2022-07-31T11:19:53.898Z,30.20
2022-07-31T11:22:30.446Z,30.00
2022-07-31T11:25:06.255Z,30.10
2022-07-31T11:27:40.810Z,30.00
2022-07-31T11:33:03.371Z,29.80
2022-07-31T11:35:38.283Z,29.60
2022-07-31T11:38:12.289Z,29.60
2022-07-31T11:40:53.213Z,29.60
2022-07-31T11:43:27.487Z,29.40
2022-07-31T11:46:00.776Z,29.40
2022-07-31T11:48:40.966Z,29.40
2022-07-31T11:51:21.736Z,29.40
2022-07-31T11:53:57.049Z,29.40
2022-07-31T11:56:32.265Z,29.40
2022-07-31T11:59:06.713Z,29.40
2022-07-31T12:01:41.004Z,29.70
2022-07-31T12:04:22.017Z,29.90
2022-07-31T12:07:02.415Z,29.70
2022-07-31T12:10:02.007Z,29.70
2022-07-31T12:12:31.370Z,29.60
2022-07-31T12:15:05.013Z,29.60
2022-07-31T12:17:39.209Z,29.60
2022-07-31T12:20:29.827Z,29.50
2022-07-31T12:23:40.800Z,29.40
2022-07-31T12:26:05.002Z,29.30
2022-07-31T12:28:38.729Z,29.20
2022-07-31T12:31:12.659Z,29.20
2022-07-31T12:33:47.289Z,29.40
2022-07-31T12:36:23.360Z,29.40
2022-07-31T12:39:04.103Z,29.40
2022-07-31T12:41:47.184Z,29.40
2022-07-31T12:47:26.355Z,29.20
2022-07-31T12:50:00.338Z,29.10
2022-07-31T12:52:36.987Z,29.10
2022-07-31T12:55:11.570Z,29.10
2022-07-31T12:57:51.188Z,29.10
2022-07-31T13:00:27.614Z,29.20
2022-07-31T13:03:01.911Z,29.20
2022-07-31T13:05:35.394Z,29.00
2022-07-31T13:08:11.905Z,28.90
2022-07-31T13:10:46.057Z,29.00
2022-07-31T13:13:20.922Z,29.20
2022-07-31T13:15:56.795Z,29.20
2022-07-31T13:18:31.595Z,29.30
2022-07-31T13:21:05.567Z,29.10
2022-07-31T13:23:41.460Z,29.10
2022-07-31T13:26:15.353Z,29.30
2022-07-31T13:28:49.535Z,29.40
2022-07-31T13:31:26.318Z,29.40
2022-07-31T13:34:16.193Z,29.20
2022-07-31T13:37:07.109Z,29.20
2022-07-31T13:39:42.856Z,29.10
2022-07-31T13:42:16.348Z,29.00
2022-07-31T13:44:50.623Z,29.00
2022-07-31T13:47:24.744Z,29.00
2022-07-31T13:49:58.347Z,29.00
2022-07-31T13:52:32.473Z,28.90
2022-07-31T13:55:08.447Z,28.90
2022-07-31T13:57:42.961Z,28.80
2022-07-31T14:00:18.346Z,28.80
2022-07-31T14:02:54.543Z,28.80
2022-07-31T14:05:39.931Z,28.90
2022-07-31T14:08:33.515Z,28.90
2022-07-31T14:11:13.806Z,28.90
2022-07-31T14:13:50.496Z,29.10
2022-07-31T14:16:24.966Z,29.10
2022-07-31T14:18:59.460Z,29.20
2022-07-31T14:21:33.317Z,29.30
2022-07-31T14:24:07.695Z,29.40
2022-07-31T14:26:43.473Z,29.40
2022-07-31T14:29:17.672Z,29.30
2022-07-31T14:31:53.122Z,29.30
2022-07-31T14:34:35.273Z,29.40
2022-07-31T14:37:09.844Z,29.40
2022-07-31T14:39:44.247Z,29.60
2022-07-31T14:42:43.253Z,29.60
2022-07-31T14:45:17.835Z,29.30
2022-07-31T14:47:51.904Z,29.10
2022-07-31T14:50:26.314Z,28.90
2022-07-31T14:53:12.584Z,29.00
2022-07-31T14:55:47.235Z,29.10
2022-07-31T14:58:23.149Z,29.10
2022-07-31T15:00:58.871Z,29.10
2022-07-31T15:03:35.012Z,29.00
2022-07-31T15:06:50.834Z,29.00
2022-07-31T15:09:04.845Z,28.80
2022-07-31T15:11:59.155Z,28.80
2022-07-31T15:14:35.481Z,28.80
2022-07-31T15:17:09.446Z,28.60
2022-07-31T15:19:43.300Z,28.80
2022-07-31T15:22:18.930Z,28.60
2022-07-31T15:24:52.996Z,28.80
2022-07-31T15:27:27.350Z,28.80
2022-07-31T15:30:07.719Z,28.90
2022-07-31T15:32:48.013Z,28.90
2022-07-31T15:35:22.693Z,28.80
2022-07-31T15:37:57.082Z,28.80
2022-07-31T15:40:31.054Z,28.90
2022-07-31T15:43:05.452Z,28.80
2022-07-31T15:45:42.451Z,28.80
2022-07-31T15:48:17.833Z,29.00
2022-07-31T15:50:52.751Z,29.10
2022-07-31T15:53:29.947Z,29.20
2022-07-31T15:56:11.505Z,29.10
2022-07-31T15:58:45.139Z,29.10
2022-07-31T16:01:21.606Z,29.10
2022-07-31T16:03:55.657Z,29.20
2022-07-31T16:06:32.063Z,29.20
2022-07-31T16:09:06.525Z,29.10
2022-07-31T16:12:03.613Z,29.10
2022-07-31T16:14:34.144Z,28.90
2022-07-31T16:17:09.647Z,28.70
2022-07-31T16:19:44.302Z,28.90
2022-07-31T16:22:18.432Z,28.90
2022-07-31T16:24:52.118Z,28.90
2022-07-31T16:27:26.623Z,28.80
2022-07-31T16:30:02.274Z,28.80
2022-07-31T16:32:39.490Z,28.60
2022-07-31T16:35:14.790Z,28.50
2022-07-31T16:37:52.403Z,28.50
2022-07-31T16:40:31.677Z,28.40
2022-07-31T16:43:49.403Z,28.20
2022-07-31T16:46:01.710Z,28.20
2022-07-31T16:48:37.330Z,28.10
2022-07-31T16:51:16.205Z,28.10
2022-07-31T16:54:13.050Z,28.30
2022-07-31T16:56:47.578Z,28.30
2022-07-31T16:59:22.127Z,28.40
2022-07-31T17:02:00.624Z,28.30
2022-07-31T17:04:37.424Z,28.10
2022-07-31T17:07:11.752Z,28.20
2022-07-31T17:15:22.443Z,28.10
2022-07-31T17:17:55.944Z,28.00
2022-07-31T17:20:32.087Z,28.00
2022-07-31T17:23:08.719Z,28.10
2022-07-31T17:25:41.836Z,28.10
2022-07-31T17:28:15.659Z,28.10
2022-07-31T17:30:49.375Z,28.10
2022-07-31T17:33:23.323Z,28.00
2022-07-31T17:36:33.335Z,28.00
2022-07-31T17:41:55.122Z,27.90
2022-07-31T17:44:29.073Z,27.90
2022-07-31T17:47:03.561Z,27.90
2022-07-31T17:49:39.699Z,27.80
2022-07-31T17:52:15.090Z,27.70
2022-07-31T17:54:49.468Z,27.10
2022-07-31T17:57:24.487Z,27.10
2022-07-31T18:00:01.416Z,27.00
2022-07-31T18:02:38.046Z,27.00
2022-07-31T18:05:12.607Z,27.00
2022-07-31T18:07:51.675Z,27.00
2022-07-31T18:10:51.811Z,26.90
2022-07-31T18:13:19.541Z,27.10
2022-07-31T18:15:52.981Z,27.10
2022-07-31T18:18:28.237Z,27.00
2022-07-31T18:21:02.967Z,27.00
2022-07-31T18:23:47.294Z,27.10
2022-07-31T18:26:21.381Z,27.10
2022-07-31T18:28:54.896Z,27.20
2022-07-31T18:31:32.188Z,27.10
2022-07-31T18:34:09.766Z,27.00
2022-07-31T18:36:44.173Z,27.10
2022-07-31T18:39:19.848Z,27.20
2022-07-31T18:41:53.557Z,27.00
2022-07-31T18:44:27.548Z,27.00
2022-07-31T18:47:01.356Z,27.00
2022-07-31T18:51:00.502Z,27.10
2022-07-31T18:52:30.567Z,27.20
2022-07-31T18:55:05.900Z,27.20
2022-07-31T18:57:40.257Z,27.30
2022-07-31T19:00:16.470Z,27.30
2022-07-31T19:02:50.784Z,27.30
2022-07-31T19:05:24.586Z,27.30
2022-07-31T19:07:58.975Z,27.30
2022-07-31T19:10:34.432Z,27.30
2022-07-31T19:13:08.354Z,27.40
2022-07-31T19:15:54.343Z,27.40
2022-07-31T19:18:29.129Z,27.30
2022-07-31T19:21:19.048Z,27.30
2022-07-31T19:23:57.200Z,27.30
2022-07-31T19:26:32.801Z,27.40
2022-07-31T19:29:09.735Z,27.40
2022-07-31T19:31:45.296Z,27.30
2022-07-31T19:34:19.967Z,27.40
2022-07-31T19:36:53.820Z,27.40
2022-07-31T19:39:27.372Z,27.30
2022-07-31T19:42:19.970Z,27.30
2022-07-31T19:44:53.378Z,27.30
2022-07-31T19:47:27.232Z,27.30
2022-07-31T19:50:01.129Z,27.40
2022-07-31T19:52:36.901Z,27.40
2022-07-31T19:55:11.886Z,27.30
2022-07-31T19:57:47.401Z,27.20
2022-07-31T20:00:21.153Z,27.30
2022-07-31T20:02:59.422Z,27.40
2022-07-31T20:05:34.274Z,27.40
2022-07-31T20:08:08.054Z,27.40
2022-07-31T20:10:41.877Z,27.40
2022-07-31T20:13:17.435Z,27.40
2022-07-31T20:15:53.139Z,27.50
2022-07-31T20:18:30.127Z,27.50
2022-07-31T20:21:06.180Z,27.50
2022-07-31T20:23:41.278Z,27.40
2022-07-31T20:26:16.911Z,27.40
2022-07-31T20:28:52.005Z,27.40
2022-07-31T20:31:26.232Z,27.50
2022-07-31T20:33:59.693Z,27.50
2022-07-31T20:36:34.384Z,27.50
2022-07-31T20:39:08.405Z,27.50
2022-07-31T20:41:42.491Z,27.50
2022-07-31T20:44:17.897Z,27.40
2022-07-31T20:46:51.335Z,27.50
2022-07-31T20:49:35.325Z,27.50
2022-07-31T20:52:10.060Z,27.50
2022-07-31T20:54:43.780Z,27.50
2022-07-31T20:57:18.968Z,27.50
2022-07-31T20:59:55.128Z,27.50
2022-07-31T21:02:28.508Z,27.50
2022-07-31T21:05:03.886Z,27.60
2022-07-31T21:07:37.927Z,27.50
2022-07-31T21:10:12.913Z,27.50
2022-07-31T21:12:49.969Z,27.50
2022-07-31T21:15:43.128Z,27.20
2022-07-31T21:18:18.472Z,27.10
2022-07-31T21:20:53.779Z,27.10
2022-07-31T21:23:29.271Z,27.10
2022-07-31T21:26:04.037Z,27.10
2022-07-31T21:28:38.426Z,27.10
2022-07-31T21:31:14.959Z,27.00
2022-07-31T21:33:50.124Z,27.00
2022-07-31T21:36:25.447Z,27.10
2022-07-31T21:38:59.389Z,27.10
2022-07-31T21:41:36.802Z,27.10
2022-07-31T21:44:12.217Z,27.20
2022-07-31T21:46:51.968Z,27.30
2022-07-31T21:49:26.995Z,27.20
2022-07-31T21:52:01.446Z,27.10
2022-07-31T21:54:35.142Z,27.20
2022-07-31T21:57:08.926Z,27.10
2022-07-31T21:59:43.304Z,27.10
2022-07-31T22:02:18.871Z,27.10
2022-07-31T22:05:08.287Z,27.10
2022-07-31T22:07:47.523Z,27.00
2022-07-31T22:10:22.802Z,27.00
2022-07-31T22:12:58.988Z,27.10
2022-07-31T22:15:58.540Z,27.10
2022-07-31T22:18:28.778Z,27.00
2022-07-31T22:21:03.235Z,27.00
2022-07-31T22:23:37.016Z,27.00
2022-07-31T22:26:11.389Z,27.00
2022-07-31T22:28:45.589Z,27.10
2022-07-31T22:31:20.022Z,27.00
2022-07-31T22:33:56.069Z,27.20
2022-07-31T22:36:30.916Z,27.20
2022-07-31T22:39:04.791Z,27.30
2022-07-31T22:41:39.222Z,27.40
2022-07-31T22:44:15.368Z,27.50
2022-07-31T22:46:49.863Z,27.60
2022-07-31T22:49:26.556Z,27.70
2022-07-31T22:51:59.872Z,27.90
2022-07-31T22:54:34.694Z,28.10
2022-07-31T22:57:08.884Z,28.30
2022-07-31T22:59:42.837Z,28.40
2022-07-31T23:02:18.342Z,28.40
2022-07-31T23:04:54.671Z,28.30
2022-07-31T23:07:28.573Z,28.20
2022-07-31T23:10:02.384Z,28.10
2022-07-31T23:12:36.845Z,28.10
2022-07-31T23:15:11.542Z,27.90
2022-07-31T23:17:44.910Z,28.10
2022-07-31T23:20:19.686Z,28.30
2022-07-31T23:22:54.121Z,28.50
2022-07-31T23:25:27.431Z,28.80
2022-07-31T23:28:01.880Z,29.10
2022-07-31T23:30:36.699Z,29.30
2022-07-31T23:33:10.238Z,29.50
2022-07-31T23:35:45.857Z,29.70
2022-07-31T23:38:20.298Z,29.90
2022-07-31T23:40:57.324Z,30.00
2022-07-31T23:43:29.420Z,30.00
2022-07-31T23:46:09.417Z,30.00
2022-07-31T23:48:43.290Z,30.00
2022-07-31T23:51:18.119Z,30.50
2022-07-31T23:53:54.302Z,30.90
2022-07-31T23:56:27.577Z,31.40
2022-07-31T23:59:01.546Z,31.80
